Wawasan Ruby — 3EVU7 — position and weather

sailwx.info

Track history (hours):
 
Tides and Currents Weather Stations Pressure Air Temp Water Temp Dewpoint Dewpoint Depression Visibility Wind Speed Wind Dir Waves Ship Positions

Wawasan Ruby

Last reported at 2014-Jun-30 05:32 UTC. Time now 2014-Jul-23 03:42 UTC.
Position N 29°40' E 122°41'.
Warning: this ship's position is 22 days out of date.

Length 146 m; draft 7.1 m.

Type: Ship (hazmat cat B). MMSI: 355619000.

Date/timePositionNaut miles runAvg speedWind from/ knotsBaromVisibWave heightAir tempDewpointWater temp
2014-Jun-30 05:32N 29°40' E 122°41'1313.7
2014-Jun-30 04:33N 29°42' E 122°25'1111.1
2014-Jun-30 03:33N 29°48' E 122°15'9 8.9
2014-Jun-30 02:33N 29°55' E 122°08'10 9.9
2014-Jun-30 01:33N 29°58' E 121°57'9 0.5
2014-Jun-29 05:33N 29°59' E 121°47'6 5.9
2014-Jun-29 04:33N 29°58' E 121°54'1 1.1
2014-Jun-29 03:31N 29°58' E 121°55'0 0.0
2014-Jun-29 02:31N 29°58' E 121°55'0 0.0
2014-Jun-29 01:28N 29°58' E 121°55'0 0.1
2014-Jun-29 00:25N 29°58' E 121°55'0 0.0
2014-Jun-28 23:31N 29°58' E 121°55'0 0.1
2014-Jun-28 22:31N 29°58' E 121°55'0 0.1
2014-Jun-28 21:31N 29°58' E 121°55'0 0.0
2014-Jun-28 20:31N 29°58' E 121°55'0 0.0
2014-Jun-28 19:25N 29°58' E 121°55'0 0.1
2014-Jun-28 18:25N 29°58' E 121°55'0 0.1
2014-Jun-28 17:31N 29°58' E 121°55'0 0.0
2014-Jun-28 16:25N 29°58' E 121°55'0 0.1
2014-Jun-28 15:31N 29°58' E 121°55'0 0.1
2014-Jun-28 14:28N 29°58' E 121°55'0 0.0
2014-Jun-28 13:31N 29°58' E 121°55'0 0.0
2014-Jun-28 12:31N 29°58' E 121°55'0 0.2
2014-Jun-28 11:25N 29°58' E 121°55'0 0.0
2014-Jun-28 10:31N 29°58' E 121°55'0 0.1
2014-Jun-28 09:31N 29°58' E 121°55'0 0.1
2014-Jun-28 08:31N 29°58' E 121°55'0 0.0
2014-Jun-28 07:25N 29°58' E 121°55'1 0.6
2014-Jun-28 06:33N 29°58' E 121°56'2 1.7
2014-Jun-28 05:33N 29°57' E 121°57'0 0.0
2014-Jun-26 02:18N 29°57' E 121°57'0 0.3
2014-Jun-26 01:33N 29°57' E 121°57'8 8.4
2014-Jun-26 00:33N 29°56' E 122°07'1211.9
2014-Jun-25 23:33N 29°47' E 122°16'8 8.4
2014-Jun-25 22:33N 29°45' E 122°26'8 8.4
2014-Jun-25 21:33N 29°42' E 122°35'0 0.0
2014-Jun-25 20:24N 29°42' E 122°35'0 0.1
2014-Jun-25 19:29N 29°42' E 122°35'0 0.0
2014-Jun-25 18:29N 29°42' E 122°35'0 0.0
2014-Jun-25 17:29N 29°42' E 122°35'0 0.1
2014-Jun-25 16:29N 29°42' E 122°35'0 0.1
2014-Jun-25 15:30N 29°42' E 122°35'0 0.0
2014-Jun-25 14:29N 29°42' E 122°35'0 0.1
2014-Jun-25 13:29N 29°42' E 122°35'0 0.1
2014-Jun-25 12:29N 29°42' E 122°35'0 0.0
2014-Jun-25 11:30N 29°42' E 122°35'0 0.1
2014-Jun-25 10:29N 29°42' E 122°35'0 0.0
2014-Jun-25 09:29N 29°42' E 122°35'0 0.0
2014-Jun-25 06:30N 29°42' E 122°35'0 0.0
2014-Jun-25 05:17N 29°42' E 122°35'0 0.0
2014-Jun-25 04:30N 29°42' E 122°35'0 0.0
2014-Jun-25 03:30N 29°42' E 122°35'0 0.0
2014-Jun-25 02:29N 29°42' E 122°35'0 0.1
2014-Jun-25 01:29N 29°42' E 122°35'0 0.0
2014-Jun-25 00:23N 29°42' E 122°35'0 0.1
2014-Jun-24 23:29N 29°42' E 122°35'0 0.1
2014-Jun-24 22:29N 29°42' E 122°35'0 0.1
2014-Jun-24 21:29N 29°42' E 122°35'0 0.0
2014-Jun-24 20:17N 29°42' E 122°35'0 0.0
2014-Jun-24 19:29N 29°42' E 122°35'0 0.1
2014-Jun-24 18:29N 29°42' E 122°35'0 0.0
2014-Jun-24 17:30N 29°42' E 122°35'0 0.0
2014-Jun-24 16:29N 29°42' E 122°35'0 0.0
2014-Jun-24 15:23N 29°42' E 122°35'0 0.0
2014-Jun-24 14:29N 29°42' E 122°35'0 0.1
2014-Jun-24 13:18N 29°42' E 122°35'0 0.1
2014-Jun-24 12:29N 29°42' E 122°35'0 0.1
2014-Jun-24 11:30N 29°42' E 122°35'0 0.1
2014-Jun-24 10:23N 29°42' E 122°35'0 0.1
2014-Jun-24 09:23N 29°42' E 122°35'0 0.0
2014-Jun-24 08:05N 29°42' E 122°35'0 0.0
2014-Jun-24 07:23N 29°42' E 122°35'0 0.0
2014-Jun-24 06:05N 29°42' E 122°35'0 0.0
2014-Jun-24 05:30N 29°42' E 122°35'0 0.1
2014-Jun-24 04:23N 29°42' E 122°35'0 0.0
2014-Jun-24 03:29N 29°42' E 122°35'0 0.0
2014-Jun-24 02:12N 29°42' E 122°35'0 0.1
2014-Jun-24 01:30N 29°42' E 122°35'0 0.0
2014-Jun-24 00:15N 29°42' E 122°35'2 2.7
2014-Jun-23 23:33N 29°43' E 122°37'  
Track history (hours):
 
Tides and Currents Weather Stations Pressure Air Temp Water Temp Dewpoint Dewpoint Depression Visibility Wind Speed Wind Dir Waves Ship Positions

Wawasan Ruby

Last reported at 2014-Jun-30 05:32 UTC. Time now 2014-Jul-23 03:42 UTC.
Position N 29°40' E 122°41'.
Warning: this ship's position is 22 days out of date.

Length 146 m; draft 7.1 m.

Type: Ship (hazmat cat B). MMSI: 355619000.

Date/timePositionNaut miles runAvg speedWind from/ knotsBaromVisibWave heightAir tempDewpointWater temp
2014-Jun-30 05:32N 29°40' E 122°41'1313.7
2014-Jun-30 04:33N 29°42' E 122°25'1111.1
2014-Jun-30 03:33N 29°48' E 122°15'9 8.9
2014-Jun-30 02:33N 29°55' E 122°08'10 9.9
2014-Jun-30 01:33N 29°58' E 121°57'9 0.5
2014-Jun-29 05:33N 29°59' E 121°47'6 5.9
2014-Jun-29 04:33N 29°58' E 121°54'1 1.1
2014-Jun-29 03:31N 29°58' E 121°55'0 0.0
2014-Jun-29 02:31N 29°58' E 121°55'0 0.0
2014-Jun-29 01:28N 29°58' E 121°55'0 0.1
2014-Jun-29 00:25N 29°58' E 121°55'0 0.0
2014-Jun-28 23:31N 29°58' E 121°55'0 0.1
2014-Jun-28 22:31N 29°58' E 121°55'0 0.1
2014-Jun-28 21:31N 29°58' E 121°55'0 0.0
2014-Jun-28 20:31N 29°58' E 121°55'0 0.0
2014-Jun-28 19:25N 29°58' E 121°55'0 0.1
2014-Jun-28 18:25N 29°58' E 121°55'0 0.1
2014-Jun-28 17:31N 29°58' E 121°55'0 0.0
2014-Jun-28 16:25N 29°58' E 121°55'0 0.1
2014-Jun-28 15:31N 29°58' E 121°55'0 0.1
2014-Jun-28 14:28N 29°58' E 121°55'0 0.0
2014-Jun-28 13:31N 29°58' E 121°55'0 0.0
2014-Jun-28 12:31N 29°58' E 121°55'0 0.2
2014-Jun-28 11:25N 29°58' E 121°55'0 0.0
2014-Jun-28 10:31N 29°58' E 121°55'0 0.1
2014-Jun-28 09:31N 29°58' E 121°55'0 0.1
2014-Jun-28 08:31N 29°58' E 121°55'0 0.0
2014-Jun-28 07:25N 29°58' E 121°55'1 0.6
2014-Jun-28 06:33N 29°58' E 121°56'2 1.7
2014-Jun-28 05:33N 29°57' E 121°57'0 0.0
2014-Jun-26 02:18N 29°57' E 121°57'0 0.3
2014-Jun-26 01:33N 29°57' E 121°57'8 8.4
2014-Jun-26 00:33N 29°56' E 122°07'1211.9
2014-Jun-25 23:33N 29°47' E 122°16'8 8.4
2014-Jun-25 22:33N 29°45' E 122°26'8 8.4
2014-Jun-25 21:33N 29°42' E 122°35'0 0.0
2014-Jun-25 20:24N 29°42' E 122°35'0 0.1
2014-Jun-25 19:29N 29°42' E 122°35'0 0.0
2014-Jun-25 18:29N 29°42' E 122°35'0 0.0
2014-Jun-25 17:29N 29°42' E 122°35'0 0.1
2014-Jun-25 16:29N 29°42' E 122°35'0 0.1
2014-Jun-25 15:30N 29°42' E 122°35'0 0.0
2014-Jun-25 14:29N 29°42' E 122°35'0 0.1
2014-Jun-25 13:29N 29°42' E 122°35'0 0.1
2014-Jun-25 12:29N 29°42' E 122°35'0 0.0
2014-Jun-25 11:30N 29°42' E 122°35'0 0.1
2014-Jun-25 10:29N 29°42' E 122°35'0 0.0
2014-Jun-25 09:29N 29°42' E 122°35'0 0.0
2014-Jun-25 06:30N 29°42' E 122°35'0 0.0
2014-Jun-25 05:17N 29°42' E 122°35'0 0.0
2014-Jun-25 04:30N 29°42' E 122°35'0 0.0
2014-Jun-25 03:30N 29°42' E 122°35'0 0.0
2014-Jun-25 02:29N 29°42' E 122°35'0 0.1
2014-Jun-25 01:29N 29°42' E 122°35'0 0.0
2014-Jun-25 00:23N 29°42' E 122°35'0 0.1
2014-Jun-24 23:29N 29°42' E 122°35'0 0.1
2014-Jun-24 22:29N 29°42' E 122°35'0 0.1
2014-Jun-24 21:29N 29°42' E 122°35'0 0.0
2014-Jun-24 20:17N 29°42' E 122°35'0 0.0
2014-Jun-24 19:29N 29°42' E 122°35'0 0.1
2014-Jun-24 18:29N 29°42' E 122°35'0 0.0
2014-Jun-24 17:30N 29°42' E 122°35'0 0.0
2014-Jun-24 16:29N 29°42' E 122°35'0 0.0
2014-Jun-24 15:23N 29°42' E 122°35'0 0.0
2014-Jun-24 14:29N 29°42' E 122°35'0 0.1
2014-Jun-24 13:18N 29°42' E 122°35'0 0.1
2014-Jun-24 12:29N 29°42' E 122°35'0 0.1
2014-Jun-24 11:30N 29°42' E 122°35'0 0.1
2014-Jun-24 10:23N 29°42' E 122°35'0 0.1
2014-Jun-24 09:23N 29°42' E 122°35'0 0.0
2014-Jun-24 08:05N 29°42' E 122°35'0 0.0
2014-Jun-24 07:23N 29°42' E 122°35'0 0.0
2014-Jun-24 06:05N 29°42' E 122°35'0 0.0
2014-Jun-24 05:30N 29°42' E 122°35'0 0.1
2014-Jun-24 04:23N 29°42' E 122°35'0 0.0
2014-Jun-24 03:29N 29°42' E 122°35'0 0.0
2014-Jun-24 02:12N 29°42' E 122°35'0 0.1
2014-Jun-24 01:30N 29°42' E 122°35'0 0.0
2014-Jun-24 00:15N 29°42' E 122°35'2 2.7
2014-Jun-23 23:33N 29°43' E 122°37'  

Dump ship's entire track history